Time;durP1;ratioP1;P1;durP2;ratioP2;P2;SDS_P1;SDS_P2;PMS_P1;PMS_P2;Temp;Humidity;BMP_temperature;BMP_pressure;BME280_temperature;BME280_humidity;BME280_pressure;Samples;Min_cycle;Max_cycle;Signal;HPM_P1;HPM_P2
2024/01/03 00:00:43;;;;;;;2.87;1.60;;;6.40;99.90;;;;;;8247060;28;20195;-82
2024/01/03 00:04:44;;;;;;;3.00;1.00;;;6.40;99.90;;;;;;8248851;28;20258;-82
2024/01/03 00:08:45;;;;;;;1.20;0.70;;;6.40;99.90;;;;;;8268067;28;20187;-82
2024/01/03 00:12:45;;;;;;;1.13;0.90;;;6.40;99.90;;;;;;8269789;28;20286;-82
2024/01/03 00:16:46;;;;;;;1.27;0.93;;;6.50;99.90;;;;;;8283851;28;20207;-82
2024/01/03 00:20:54;;;;;;;1.60;0.97;;;6.50;99.90;;;;;;8299761;28;20237;-81
2024/01/03 00:24:55;;;;;;;1.03;0.70;;;6.50;99.90;;;;;;8274691;28;20348;-82
2024/01/03 00:28:59;;;;;;;1.27;0.80;;;6.50;99.90;;;;;;8248386;28;20188;-83
2024/01/03 00:33:00;;;;;;;0.60;0.47;;;6.60;99.90;;;;;;8241908;28;20211;-81
2024/01/03 00:37:01;;;;;;;1.30;0.73;;;6.60;99.90;;;;;;8241493;28;20187;-82
2024/01/03 00:41:03;;;;;;;0.90;0.70;;;6.60;99.90;;;;;;8259364;28;21232;-82
2024/01/03 00:45:04;;;;;;;1.43;0.70;;;6.70;99.90;;;;;;8245942;28;20196;-82
2024/01/03 00:49:05;;;;;;;1.50;0.80;;;6.70;99.90;;;;;;8248048;28;20231;-81
2024/01/03 00:53:07;;;;;;;1.13;0.77;;;6.70;99.90;;;;;;8253466;28;20228;-81
2024/01/03 00:57:11;;;;;;;0.90;0.60;;;6.70;99.90;;;;;;8262053;28;20218;-81
2024/01/03 01:01:12;;;;;;;4.03;0.70;;;6.80;99.90;;;;;;8251061;28;20207;-81
2024/01/03 01:05:13;;;;;;;1.00;0.70;;;6.80;99.90;;;;;;8264151;28;20200;-81
2024/01/03 01:09:17;;;;;;;0.73;0.60;;;6.90;99.90;;;;;;8241612;28;20202;-79
2024/01/03 01:13:18;;;;;;;1.40;0.70;;;7.00;99.90;;;;;;8238927;28;20211;-79
2024/01/03 01:17:20;;;;;;;1.80;0.50;;;7.10;99.90;;;;;;8253036;28;20587;-79
2024/01/03 01:21:21;;;;;;;1.30;0.50;;;7.20;99.90;;;;;;8254493;28;20188;-80
2024/01/03 01:25:22;;;;;;;0.63;0.60;;;7.30;99.90;;;;;;8238567;28;20203;-80
2024/01/03 01:29:22;;;;;;;1.87;0.50;;;7.30;99.90;;;;;;8239123;28;20290;-79
2024/01/03 01:33:23;;;;;;;1.07;0.70;;;7.40;99.90;;;;;;8241422;28;20226;-79
2024/01/03 01:37:24;;;;;;;4.10;0.60;;;7.40;99.90;;;;;;8241309;28;20195;-80
2024/01/03 01:41:25;;;;;;;0.60;0.43;;;7.50;99.90;;;;;;8258358;28;20223;-80
2024/01/03 01:45:26;;;;;;;1.27;0.47;;;7.50;99.90;;;;;;8253427;28;20206;-80
2024/01/03 01:49:27;;;;;;;0.80;0.40;;;7.60;99.90;;;;;;8254937;28;20196;-80
2024/01/03 01:53:28;;;;;;;0.67;0.43;;;7.60;99.90;;;;;;8256854;28;20231;-79
2024/01/03 01:57:33;;;;;;;0.80;0.47;;;7.60;99.90;;;;;;8254270;28;20188;-81
2024/01/03 02:01:37;;;;;;;0.97;0.60;;;7.70;99.90;;;;;;8254587;28;20211;-80
2024/01/03 02:05:38;;;;;;;1.20;0.60;;;7.70;99.90;;;;;;8252125;28;20220;-80
2024/01/03 02:09:42;;;;;;;0.67;0.50;;;7.70;99.90;;;;;;8222386;28;20272;-80
2024/01/03 02:13:44;;;;;;;0.90;0.60;;;7.60;99.90;;;;;;8236591;28;20223;-80
2024/01/03 02:17:46;;;;;;;0.80;0.50;;;7.60;99.90;;;;;;8239997;28;20208;-83
2024/01/03 02:21:47;;;;;;;0.90;0.60;;;7.60;99.90;;;;;;8251414;28;20188;-82
2024/01/03 02:25:48;;;;;;;0.97;0.50;;;7.60;99.90;;;;;;8252432;28;20272;-82
2024/01/03 02:29:48;;;;;;;0.60;0.43;;;7.60;99.90;;;;;;8259691;28;20187;-82
2024/01/03 02:33:49;;;;;;;1.10;0.70;;;7.60;99.90;;;;;;8230366;28;20220;-82
2024/01/03 02:37:56;;;;;;;1.27;0.70;;;7.60;99.90;;;;;;8262815;28;20193;-82
2024/01/03 02:41:59;;;;;;;0.73;0.50;;;7.70;99.90;;;;;;8245476;28;20180;-82
2024/01/03 02:46:03;;;;;;;1.70;0.67;;;7.70;99.90;;;;;;8244417;28;20219;-82
2024/01/03 02:50:05;;;;;;;0.60;0.50;;;7.60;99.90;;;;;;8255651;28;20192;-81
2024/01/03 02:54:06;;;;;;;1.37;0.87;;;7.60;99.90;;;;;;8237803;28;20266;-82
2024/01/03 02:58:06;;;;;;;0.90;0.60;;;7.50;99.90;;;;;;8255876;28;20195;-82
2024/01/03 03:02:07;;;;;;;0.93;0.53;;;7.30;99.90;;;;;;8277450;28;20195;-81
2024/01/03 03:06:14;;;;;;;2.27;0.50;;;7.20;99.90;;;;;;8281814;28;20196;-82
2024/01/03 03:10:15;;;;;;;0.70;0.70;;;7.20;99.90;;;;;;8297081;28;20215;-82
2024/01/03 03:14:16;;;;;;;1.07;0.63;;;7.20;99.90;;;;;;8265009;28;21331;-83
2024/01/03 03:18:16;;;;;;;1.63;0.80;;;7.20;99.90;;;;;;8286055;28;20795;-82
2024/01/03 03:22:23;;;;;;;1.00;0.80;;;7.30;99.90;;;;;;8274015;28;20538;-83
2024/01/03 03:26:24;;;;;;;0.70;0.40;;;7.40;99.90;;;;;;8239730;28;20184;-81
2024/01/03 03:30:28;;;;;;;1.00;0.70;;;7.50;99.90;;;;;;8249525;28;20192;-80
2024/01/03 03:34:29;;;;;;;1.17;0.60;;;7.60;99.90;;;;;;8236544;28;20298;-80
2024/01/03 03:38:35;;;;;;;1.10;0.70;;;7.70;99.90;;;;;;8242419;28;20265;-80
2024/01/03 03:42:35;;;;;;;1.67;0.80;;;7.80;99.90;;;;;;8263819;28;20266;-80
2024/01/03 03:46:36;;;;;;;1.10;0.80;;;7.90;99.90;;;;;;8251683;28;20196;-79
2024/01/03 03:50:37;;;;;;;1.87;0.80;;;8.00;99.90;;;;;;8230426;28;20204;-79
2024/01/03 03:54:38;;;;;;;2.17;0.60;;;8.00;99.90;;;;;;8238865;28;20243;-79
2024/01/03 03:58:38;;;;;;;1.00;0.60;;;8.00;99.90;;;;;;8230808;28;20195;-81
2024/01/03 04:02:40;;;;;;;0.90;0.80;;;7.90;99.90;;;;;;8245493;28;20207;-79
2024/01/03 04:06:43;;;;;;;0.97;0.70;;;7.80;99.90;;;;;;8234816;28;20292;-79
2024/01/03 04:10:45;;;;;;;1.23;0.80;;;7.70;99.90;;;;;;8254867;28;20215;-78
2024/01/03 04:14:45;;;;;;;1.40;0.80;;;7.70;99.90;;;;;;8231812;28;20309;-78
2024/01/03 04:18:46;;;;;;;0.60;0.60;;;7.80;99.90;;;;;;8232275;28;20200;-79
2024/01/03 04:22:47;;;;;;;1.67;0.60;;;7.90;99.90;;;;;;8254277;28;20192;-79
2024/01/03 04:26:48;;;;;;;0.90;0.60;;;8.00;99.90;;;;;;8238823;28;20196;-78
2024/01/03 04:30:49;;;;;;;0.97;0.70;;;8.00;99.90;;;;;;8243363;28;20196;-80
2024/01/03 04:34:50;;;;;;;1.17;0.73;;;8.10;99.90;;;;;;8233078;28;20476;-79
2024/01/03 04:38:53;;;;;;;1.97;0.83;;;8.10;99.90;;;;;;8251453;28;20184;-79
2024/01/03 04:42:54;;;;;;;1.10;0.83;;;8.10;99.90;;;;;;8236888;28;20203;-79
2024/01/03 04:46:55;;;;;;;2.57;0.83;;;8.10;99.90;;;;;;8239466;28;20192;-79
2024/01/03 04:50:56;;;;;;;1.73;0.77;;;8.00;99.90;;;;;;8238322;28;20504;-79
2024/01/03 04:54:56;;;;;;;1.17;0.90;;;7.90;99.90;;;;;;8252993;28;20211;-79
2024/01/03 04:58:57;;;;;;;2.43;0.90;;;7.80;99.90;;;;;;8242090;28;20195;-79
2024/01/03 05:03:03;;;;;;;1.20;0.80;;;7.80;99.90;;;;;;8235934;28;20219;-79
2024/01/03 05:07:04;;;;;;;1.70;0.97;;;7.80;99.90;;;;;;8237301;28;20191;-79
2024/01/03 05:11:09;;;;;;;1.87;1.10;;;7.70;99.90;;;;;;8237384;28;20274;-79
2024/01/03 05:15:10;;;;;;;2.80;1.10;;;7.70;99.90;;;;;;8238885;28;20219;-79
2024/01/03 05:19:11;;;;;;;1.70;0.73;;;7.60;99.90;;;;;;8240193;28;20202;-80
2024/01/03 05:23:12;;;;;;;0.97;0.70;;;7.60;99.90;;;;;;8253344;28;20203;-79
2024/01/03 05:27:13;;;;;;;1.20;0.70;;;7.60;99.90;;;;;;8238391;28;20250;-79
2024/01/03 05:31:14;;;;;;;1.30;0.80;;;7.70;99.90;;;;;;8255198;28;20200;-79
2024/01/03 05:35:15;;;;;;;0.90;0.80;;;7.80;99.90;;;;;;8240585;28;20239;-79
2024/01/03 05:39:16;;;;;;;2.20;0.90;;;8.00;99.90;;;;;;8255502;28;20195;-79
2024/01/03 05:43:17;;;;;;;1.80;0.83;;;8.10;99.90;;;;;;8254159;28;20637;-78
2024/01/03 05:47:18;;;;;;;1.33;0.80;;;8.10;99.90;;;;;;8232330;28;20202;-80
2024/01/03 05:51:20;;;;;;;0.97;0.60;;;8.20;99.90;;;;;;8260095;28;20379;-80
2024/01/03 05:55:21;;;;;;;1.00;0.50;;;8.20;99.90;;;;;;8238506;28;20619;-80
2024/01/03 05:59:22;;;;;;;1.27;0.90;;;8.00;99.90;;;;;;8244284;28;20307;-80
2024/01/03 06:03:23;;;;;;;1.27;0.80;;;7.90;99.90;;;;;;8267579;28;20203;-79
2024/01/03 06:07:23;;;;;;;1.10;0.67;;;7.90;99.90;;;;;;8278630;28;20254;-80
2024/01/03 06:11:24;;;;;;;0.80;0.70;;;7.90;99.90;;;;;;8276392;28;20223;-81
2024/01/03 06:15:25;;;;;;;1.50;0.73;;;7.90;99.90;;;;;;8280055;28;20224;-81
2024/01/03 06:19:26;;;;;;;2.70;0.77;;;7.80;99.90;;;;;;8253024;28;20196;-80
2024/01/03 06:23:26;;;;;;;1.47;0.90;;;7.70;99.90;;;;;;8241073;28;20203;-81
2024/01/03 06:27:27;;;;;;;1.97;0.83;;;7.70;99.90;;;;;;8260498;28;20579;-80
2024/01/03 06:31:28;;;;;;;1.50;0.87;;;7.60;99.90;;;;;;8259995;28;20220;-80
2024/01/03 06:35:30;;;;;;;1.10;0.97;;;7.60;99.90;;;;;;8240456;28;20220;-80
2024/01/03 06:39:31;;;;;;;3.03;0.80;;;7.50;99.90;;;;;;8255728;28;20188;-81
2024/01/03 06:43:31;;;;;;;1.90;0.70;;;7.40;99.90;;;;;;8235713;28;20223;-80
2024/01/03 06:47:32;;;;;;;1.63;0.73;;;7.40;99.90;;;;;;8255225;28;20594;-81
2024/01/03 06:51:33;;;;;;;2.27;1.00;;;7.40;99.90;;;;;;8240110;28;20190;-80
2024/01/03 06:55:34;;;;;;;1.50;0.80;;;7.30;99.90;;;;;;8239105;28;20215;-80
2024/01/03 06:59:36;;;;;;;2.27;0.70;;;7.30;99.90;;;;;;8239679;28;20198;-81
2024/01/03 07:03:36;;;;;;;2.07;0.80;;;7.40;99.90;;;;;;8232275;28;20200;-81
2024/01/03 07:07:37;;;;;;;1.50;0.70;;;7.50;99.90;;;;;;8234795;28;20238;-81
2024/01/03 07:11:38;;;;;;;1.67;0.70;;;7.60;99.90;;;;;;8253388;28;20211;-81
2024/01/03 07:15:39;;;;;;;2.87;0.70;;;7.70;99.90;;;;;;8253896;28;20220;-81
2024/01/03 07:19:42;;;;;;;1.03;0.57;;;7.70;99.90;;;;;;8250992;28;20184;-81
2024/01/03 07:23:43;;;;;;;0.70;0.50;;;7.70;99.90;;;;;;8239282;28;20602;-81
2024/01/03 07:27:45;;;;;;;1.13;0.60;;;7.70;99.90;;;;;;8230150;28;20180;-81
2024/01/03 07:31:45;;;;;;;1.63;0.80;;;7.70;99.90;;;;;;8251542;28;20223;-81
2024/01/03 07:35:52;;;;;;;0.97;0.60;;;7.70;99.90;;;;;;8228467;28;20211;-81
2024/01/03 07:39:53;;;;;;;2.23;0.67;;;7.60;99.90;;;;;;8236362;28;20259;-81
2024/01/03 07:43:53;;;;;;;1.10;0.70;;;7.60;99.90;;;;;;8194496;28;20282;-81
2024/01/03 07:47:54;;;;;;;1.77;0.90;;;7.70;99.90;;;;;;8231957;28;20184;-81
2024/01/03 07:51:55;;;;;;;1.67;0.70;;;7.70;99.90;;;;;;8230576;28;20260;-81
2024/01/03 07:55:56;;;;;;;1.63;0.80;;;7.70;99.90;;;;;;8230559;28;20590;-81
2024/01/03 08:00:03;;;;;;;1.93;1.07;;;7.80;99.90;;;;;;8235653;28;20762;-81
2024/01/03 08:04:05;;;;;;;2.10;0.80;;;7.80;99.90;;;;;;8236363;28;20236;-81
2024/01/03 08:08:07;;;;;;;2.47;0.90;;;7.80;99.90;;;;;;8238628;28;20200;-81
2024/01/03 08:12:09;;;;;;;2.70;0.77;;;7.90;99.90;;;;;;8246353;28;20203;-81
2024/01/03 08:16:11;;;;;;;1.93;1.00;;;8.10;99.90;;;;;;8237529;28;20203;-81
2024/01/03 08:20:12;;;;;;;1.73;0.80;;;8.20;99.90;;;;;;8255936;28;20201;-80
2024/01/03 08:24:12;;;;;;;1.13;0.77;;;8.40;99.90;;;;;;8236775;28;20216;-81
2024/01/03 08:28:13;;;;;;;2.37;0.93;;;8.60;99.90;;;;;;8237221;28;20210;-81
2024/01/03 08:32:14;;;;;;;1.10;0.87;;;8.70;99.90;;;;;;8254893;28;20216;-81
2024/01/03 08:36:15;;;;;;;2.57;1.23;;;8.80;99.90;;;;;;8240576;28;20197;-81
2024/01/03 08:40:16;;;;;;;1.60;0.93;;;9.00;99.90;;;;;;8254604;28;20462;-81
2024/01/03 08:44:16;;;;;;;1.57;1.00;;;9.10;99.90;;;;;;8243072;28;20266;-82
2024/01/03 08:48:17;;;;;;;3.20;1.10;;;9.20;50.30;;;;;;8235658;28;20224;-81
2024/01/03 08:52:18;;;;;;;1.93;0.80;;;9.40;23.60;;;;;;8242895;28;20221;-81
2024/01/03 08:56:19;;;;;;;2.13;1.20;;;9.60;1.00;;;;;;8251642;28;20245;-80
2024/01/03 09:00:20;;;;;;;2.67;1.17;;;9.80;99.90;;;;;;8270281;28;20258;-81
2024/01/03 09:04:21;;;;;;;2.40;1.07;;;9.90;99.90;;;;;;8281779;28;20191;-82
2024/01/03 09:08:22;;;;;;;2.90;1.30;;;9.90;99.90;;;;;;8290620;28;20211;-81
2024/01/03 09:12:24;;;;;;;3.93;0.80;;;10.00;99.90;;;;;;8266558;28;20226;-81
2024/01/03 09:16:30;;;;;;;2.40;1.00;;;10.00;99.90;;;;;;8243826;28;20206;-79
2024/01/03 09:20:31;;;;;;;3.37;1.20;;;10.10;99.90;;;;;;8240307;28;20184;-79
2024/01/03 09:24:31;;;;;;;1.63;0.70;;;10.20;98.20;;;;;;8260496;28;20192;-80
2024/01/03 09:28:37;;;;;;;2.30;1.00;;;10.30;48.00;;;;;;8261589;28;20192;-80
2024/01/03 09:32:37;;;;;;;3.40;0.87;;;10.40;41.00;;;;;;8264436;28;20303;-80
2024/01/03 09:36:38;;;;;;;2.07;0.93;;;10.50;20.70;;;;;;8252921;28;20190;-80
2024/01/03 09:40:46;;;;;;;2.53;1.00;;;10.60;10.10;;;;;;8240284;28;20198;-81
2024/01/03 09:44:54;;;;;;;1.87;0.70;;;10.70;4.40;;;;;;8239849;28;20790;-81
2024/01/03 09:48:54;;;;;;;2.70;1.00;;;10.80;1.00;;;;;;8236795;28;20191;-80
2024/01/03 09:52:57;;;;;;;1.83;0.97;;;10.90;1.00;;;;;;8240612;28;20208;-80
2024/01/03 09:57:00;;;;;;;3.57;1.27;;;11.00;1.00;;;;;;8243165;28;20188;-80
2024/01/03 10:01:02;;;;;;;2.37;0.97;;;11.10;1.00;;;;;;8239350;28;20687;-79
2024/01/03 10:05:06;;;;;;;2.17;0.93;;;11.10;1.00;;;;;;8239401;28;20199;-80
2024/01/03 10:09:11;;;;;;;2.67;0.83;;;11.20;1.00;;;;;;8238066;28;20458;-78
2024/01/03 10:13:17;;;;;;;2.33;1.10;;;11.20;1.00;;;;;;8259424;28;20211;-79
2024/01/03 10:17:22;;;;;;;1.37;0.80;;;11.30;1.00;;;;;;8239080;28;20234;-80
2024/01/03 10:21:22;;;;;;;2.57;0.90;;;11.20;1.00;;;;;;8242692;28;20192;-79
2024/01/03 10:25:24;;;;;;;2.50;0.80;;;11.30;1.00;;;;;;8239235;28;20223;-80
2024/01/03 10:29:25;;;;;;;2.43;1.00;;;11.10;1.00;;;;;;8255762;28;20206;-81
2024/01/03 10:33:25;;;;;;;2.30;0.93;;;11.00;1.00;;;;;;8239661;28;20211;-81
2024/01/03 10:37:26;;;;;;;2.83;1.00;;;11.00;1.00;;;;;;8257516;28;20211;-81
2024/01/03 10:41:31;;;;;;;2.30;1.00;;;11.10;1.00;;;;;;8233958;28;20191;-81
2024/01/03 10:45:33;;;;;;;3.30;1.17;;;11.30;1.00;;;;;;8236474;28;20282;-82
2024/01/03 10:49:33;;;;;;;3.10;1.10;;;11.50;1.00;;;;;;8253933;28;20206;-81
2024/01/03 10:53:42;;;;;;;2.83;0.87;;;11.60;1.00;;;;;;8251304;28;20216;-81
2024/01/03 10:57:54;;;;;;;2.03;0.87;;;11.70;1.00;;;;;;8248283;28;20191;-80
2024/01/03 11:02:21;;;;;;;4.00;1.03;;;11.80;1.00;;;;;;8239192;28;20199;-79
2024/01/03 11:06:29;;;;;;;1.53;0.87;;;11.90;1.00;;;;;;8237676;28;20214;-80
2024/01/03 11:10:50;;;;;;;2.50;1.13;;;11.80;1.00;;;;;;8239604;28;20216;-80
2024/01/03 11:14:51;;;;;;;1.63;0.80;;;11.80;1.00;;;;;;8233672;28;20215;-81
2024/01/03 11:18:52;;;;;;;2.70;0.97;;;11.80;1.00;;;;;;8241631;28;20188;-80
2024/01/03 11:23:02;;;;;;;4.37;1.10;;;11.80;1.00;;;;;;8258078;28;20191;-79
2024/01/03 11:27:06;;;;;;;3.33;1.10;;;11.80;1.00;;;;;;8243236;28;20222;-81
2024/01/03 11:31:07;;;;;;;2.53;0.97;;;11.70;1.00;;;;;;8249936;28;20195;-80
2024/01/03 11:35:08;;;;;;;3.20;1.10;;;11.60;1.00;;;;;;8235644;28;20222;-80
2024/01/03 11:39:35;;;;;;;4.07;1.13;;;11.40;1.00;;;;;;8241725;28;20191;-79
2024/01/03 11:43:36;;;;;;;3.23;1.33;;;11.30;1.00;;;;;;8240219;28;20187;-79
2024/01/03 11:47:44;;;;;;;4.40;1.33;;;11.30;1.00;;;;;;8252758;28;20655;-79
2024/01/03 11:51:45;;;;;;;2.60;1.20;;;11.30;1.00;;;;;;8249787;28;20510;-80
2024/01/03 11:55:50;;;;;;;1.60;1.07;;;11.30;1.00;;;;;;8272280;28;20254;-80
2024/01/03 11:59:59;;;;;;;1.73;0.90;;;11.20;1.00;;;;;;8298908;28;20252;-80
2024/01/03 12:04:10;;;;;;;2.20;0.97;;;11.00;1.00;;;;;;8302868;28;20214;-80
2024/01/03 12:08:13;;;;;;;3.10;1.40;;;11.00;1.00;;;;;;8299447;28;20194;-80
2024/01/03 12:12:14;;;;;;;4.10;1.23;;;11.00;1.00;;;;;;8268902;28;20269;-79
2024/01/03 12:16:15;;;;;;;4.63;1.23;;;11.00;1.00;;;;;;8246473;28;20257;-81
2024/01/03 12:20:18;;;;;;;2.60;1.10;;;11.00;1.00;;;;;;8257071;28;20196;-79
2024/01/03 12:24:19;;;;;;;2.83;1.00;;;11.10;1.00;;;;;;8259725;28;20254;-79
2024/01/03 12:28:20;;;;;;;2.20;1.30;;;11.10;1.00;;;;;;8247788;28;20306;-80
2024/01/03 12:32:21;;;;;;;2.87;1.53;;;11.00;1.00;;;;;;8248043;28;20191;-80
2024/01/03 12:36:25;;;;;;;2.47;1.13;;;11.00;1.00;;;;;;8240178;28;20188;-80
2024/01/03 12:40:26;;;;;;;3.13;1.20;;;10.90;1.00;;;;;;8251813;28;20188;-79
2024/01/03 12:44:27;;;;;;;2.83;1.30;;;10.90;1.00;;;;;;8243944;28;20199;-79
2024/01/03 12:48:27;;;;;;;3.73;1.40;;;10.90;1.00;;;;;;8238041;28;20288;-80
2024/01/03 12:52:30;;;;;;;3.77;1.47;;;10.90;1.00;;;;;;8242822;28;20481;-80
2024/01/03 12:56:31;;;;;;;3.03;1.40;;;11.00;1.00;;;;;;8236888;28;20185;-81
2024/01/03 13:00:32;;;;;;;3.60;1.20;;;11.00;1.00;;;;;;8231291;28;20202;-80
2024/01/03 13:04:34;;;;;;;3.80;1.20;;;11.00;1.00;;;;;;8238308;28;20197;-80
2024/01/03 13:08:35;;;;;;;3.93;1.40;;;10.90;1.00;;;;;;8258827;28;20219;-80
2024/01/03 13:12:36;;;;;;;4.43;1.13;;;10.80;1.00;;;;;;8245079;28;20240;-81
2024/01/03 13:16:38;;;;;;;3.53;1.17;;;10.70;1.00;;;;;;8248280;28;20314;-79
2024/01/03 13:20:38;;;;;;;5.07;1.40;;;10.70;1.00;;;;;;8258849;28;20184;-80
2024/01/03 13:24:40;;;;;;;1.73;1.20;;;10.70;1.00;;;;;;8238281;28;20191;-81
2024/01/03 13:28:41;;;;;;;2.87;1.23;;;10.60;1.00;;;;;;8256608;28;20184;-79
2024/01/03 13:32:43;;;;;;;1.53;0.90;;;10.40;9.30;;;;;;8241898;28;20215;-80
2024/01/03 13:36:44;;;;;;;3.47;1.40;;;10.40;30.40;;;;;;8234146;28;20177;-80
2024/01/03 13:40:46;;;;;;;3.37;1.53;;;10.30;40.50;;;;;;8260165;28;20187;-80
2024/01/03 13:44:47;;;;;;;3.90;1.57;;;10.20;65.60;;;;;;8240358;28;20188;-80
2024/01/03 13:48:50;;;;;;;4.97;1.63;;;10.20;88.60;;;;;;8255188;28;20258;-80
2024/01/03 13:52:51;;;;;;;4.90;1.30;;;10.20;94.80;;;;;;8238608;28;20211;-80
2024/01/03 13:56:52;;;;;;;3.90;1.10;;;10.10;99.90;;;;;;8254915;28;20187;-81
2024/01/03 14:00:53;;;;;;;4.83;1.40;;;10.10;96.10;;;;;;8233418;28;20209;-80
2024/01/03 14:04:54;;;;;;;3.30;1.20;;;10.10;86.80;;;;;;8251561;28;20191;-81
2024/01/03 14:08:58;;;;;;;2.97;1.70;;;10.00;76.60;;;;;;8231216;28;20196;-81
2024/01/03 14:12:59;;;;;;;8.00;1.43;;;9.90;91.00;;;;;;8232507;28;20251;-81
2024/01/03 14:17:01;;;;;;;3.47;1.87;;;9.80;90.10;;;;;;8230955;28;20231;-80
2024/01/03 14:21:07;;;;;;;3.50;1.60;;;9.80;94.20;;;;;;8234995;28;20194;-81
2024/01/03 14:25:08;;;;;;;3.97;1.30;;;9.80;90.60;;;;;;8235271;28;20213;-80
2024/01/03 14:29:09;;;;;;;3.97;1.33;;;9.70;80.60;;;;;;8239960;28;20191;-80
2024/01/03 14:33:10;;;;;;;5.00;1.37;;;9.70;62.00;;;;;;8239034;28;20246;-81
2024/01/03 14:37:11;;;;;;;2.97;1.33;;;9.70;72.90;;;;;;8256807;28;20190;-81
2024/01/03 14:41:15;;;;;;;3.17;1.07;;;9.60;75.70;;;;;;8246767;28;20183;-81
2024/01/03 14:45:17;;;;;;;2.93;1.63;;;9.60;99.90;;;;;;8233619;28;20541;-81
2024/01/03 14:49:18;;;;;;;4.60;1.20;;;9.50;98.70;;;;;;8231228;28;20205;-81
2024/01/03 14:53:19;;;;;;;4.40;1.73;;;9.50;99.90;;;;;;8235524;28;20211;-79
2024/01/03 14:57:20;;;;;;;4.40;1.60;;;9.50;99.40;;;;;;8257326;28;20190;-80
2024/01/03 15:01:21;;;;;;;3.03;1.40;;;9.50;99.90;;;;;;8273402;28;20194;-81
2024/01/03 15:05:22;;;;;;;5.03;1.60;;;9.50;99.90;;;;;;8278321;28;20365;-81
2024/01/03 15:09:24;;;;;;;2.43;1.43;;;9.50;97.00;;;;;;8278913;28;20193;-81
2024/01/03 15:13:24;;;;;;;3.27;1.30;;;9.60;99.90;;;;;;8264531;28;20265;-81
2024/01/03 15:17:25;;;;;;;2.60;1.30;;;9.60;99.90;;;;;;8237447;28;20215;-81
2024/01/03 15:21:26;;;;;;;2.17;0.97;;;9.60;99.90;;;;;;8237928;28;20206;-81
2024/01/03 15:25:33;;;;;;;3.80;1.10;;;9.60;99.90;;;;;;8255485;28;20248;-81
2024/01/03 15:29:34;;;;;;;2.33;0.90;;;9.50;99.90;;;;;;8244751;28;20194;-81
2024/01/03 15:33:35;;;;;;;2.17;0.90;;;9.50;99.90;;;;;;8234005;28;20217;-81
2024/01/03 15:37:36;;;;;;;2.20;0.90;;;9.50;99.90;;;;;;8235902;28;20189;-81
2024/01/03 15:41:37;;;;;;;3.33;1.23;;;9.40;99.90;;;;;;8249860;28;20189;-81
2024/01/03 15:45:38;;;;;;;2.50;1.43;;;9.40;99.90;;;;;;8234648;28;20313;-80
2024/01/03 15:49:39;;;;;;;2.40;1.37;;;9.30;99.90;;;;;;8233719;28;20195;-80
2024/01/03 15:53:40;;;;;;;2.37;1.43;;;9.30;99.90;;;;;;8234860;28;20236;-79
2024/01/03 15:57:41;;;;;;;4.13;2.10;;;9.20;99.90;;;;;;8233673;28;20321;-81
2024/01/03 16:01:42;;;;;;;6.13;1.93;;;9.20;99.90;;;;;;8234955;28;20201;-80
2024/01/03 16:05:43;;;;;;;4.73;2.10;;;9.10;99.90;;;;;;8231975;28;20215;-81
2024/01/03 16:09:44;;;;;;;4.07;2.00;;;9.10;99.90;;;;;;8233257;28;20301;-81
2024/01/03 16:13:46;;;;;;;3.47;1.90;;;9.10;1.00;;;;;;8231792;28;20236;-81
2024/01/03 16:17:47;;;;;;;3.37;2.33;;;9.00;1.00;;;;;;8238621;28;20204;-79
2024/01/03 16:21:48;;;;;;;3.90;2.30;;;9.00;1.00;;;;;;8237127;28;20184;-80
2024/01/03 16:25:48;;;;;;;4.77;2.00;;;9.00;1.00;;;;;;8229029;28;20217;-81
2024/01/03 16:29:49;;;;;;;4.03;2.30;;;9.00;1.00;;;;;;8239250;28;20239;-80
2024/01/03 16:33:56;;;;;;;4.73;2.00;;;9.00;1.00;;;;;;8231163;28;20305;-80
2024/01/03 16:38:05;;;;;;;4.30;2.23;;;9.00;1.00;;;;;;8252762;28;20209;-81
2024/01/03 16:42:07;;;;;;;5.30;2.30;;;9.00;1.00;;;;;;8255236;28;20196;-82
2024/01/03 16:46:09;;;;;;;3.53;1.93;;;9.00;1.00;;;;;;8237523;28;20199;-80
2024/01/03 16:50:10;;;;;;;3.47;1.87;;;8.90;99.90;;;;;;8235144;28;20184;-80
2024/01/03 16:54:11;;;;;;;5.07;1.90;;;8.80;99.90;;;;;;8237073;28;20505;-80
2024/01/03 16:58:12;;;;;;;3.13;1.60;;;8.80;99.90;;;;;;8233533;28;20227;-79
2024/01/03 17:02:13;;;;;;;5.60;1.60;;;8.60;99.90;;;;;;8257926;28;20205;-79
2024/01/03 17:06:14;;;;;;;4.50;1.80;;;8.60;99.90;;;;;;8234446;28;20196;-80
2024/01/03 17:10:15;;;;;;;3.43;1.80;;;8.60;99.90;;;;;;8237274;28;20201;-80
2024/01/03 17:14:16;;;;;;;4.60;1.53;;;8.60;99.90;;;;;;8238636;28;20213;-80
2024/01/03 17:18:17;;;;;;;3.40;1.80;;;8.60;99.90;;;;;;8223167;28;20224;-81
2024/01/03 17:22:18;;;;;;;4.13;1.53;;;8.70;81.20;;;;;;8243944;28;20219;-79
2024/01/03 17:26:21;;;;;;;2.10;1.40;;;8.70;71.50;;;;;;8237282;28;20192;-79
2024/01/03 17:30:25;;;;;;;3.87;1.60;;;8.60;22.20;;;;;;8239319;28;20192;-78
2024/01/03 17:34:27;;;;;;;2.57;1.57;;;8.50;15.90;;;;;;8236456;28;20215;-79
2024/01/03 17:38:28;;;;;;;6.20;1.90;;;8.30;32.90;;;;;;8241248;28;20255;-78
2024/01/03 17:42:29;;;;;;;2.77;1.93;;;8.10;73.20;;;;;;8240769;28;20231;-81
2024/01/03 17:46:30;;;;;;;4.23;2.17;;;7.90;99.90;;;;;;8235124;28;20187;-81
2024/01/03 17:50:37;;;;;;;5.23;2.77;;;7.80;99.90;;;;;;8251620;28;20196;-80
2024/01/03 17:54:39;;;;;;;3.97;2.20;;;7.70;99.90;;;;;;8243509;28;20227;-79
2024/01/03 17:58:40;;;;;;;4.97;2.67;;;7.60;99.90;;;;;;8264287;28;20185;-80
2024/01/03 18:02:41;;;;;;;7.00;2.47;;;7.60;1.00;;;;;;8269773;28;20204;-79
2024/01/03 18:06:42;;;;;;;3.83;2.20;;;7.70;1.00;;;;;;8270898;28;20187;-79
2024/01/03 18:10:44;;;;;;;3.97;1.80;;;7.80;99.90;;;;;;8269032;28;20183;-78
2024/01/03 18:14:51;;;;;;;4.87;2.00;;;8.00;99.90;;;;;;8275544;28;20223;-79
2024/01/03 18:18:53;;;;;;;4.97;2.00;;;8.10;1.00;;;;;;8241504;28;20191;-79
2024/01/03 18:22:55;;;;;;;4.53;1.70;;;8.20;1.00;;;;;;8247498;28;20199;-80
2024/01/03 18:26:56;;;;;;;4.27;2.20;;;8.40;99.90;;;;;;8260155;28;20199;-79
2024/01/03 18:30:57;;;;;;;4.07;2.10;;;8.40;99.90;;;;;;8265347;28;20216;-79
2024/01/03 18:34:58;;;;;;;4.07;2.20;;;8.30;99.90;;;;;;8259157;28;20610;-79
2024/01/03 18:38:58;;;;;;;3.67;2.30;;;8.20;99.90;;;;;;8252509;28;20441;-80
2024/01/03 18:43:02;;;;;;;4.40;2.43;;;8.20;99.90;;;;;;8237191;28;20222;-81
2024/01/03 18:47:03;;;;;;;4.47;2.60;;;8.30;99.90;;;;;;8239225;28;20246;-80
2024/01/03 18:51:05;;;;;;;4.67;2.37;;;8.30;99.90;;;;;;8237354;28;20202;-80
2024/01/03 18:55:06;;;;;;;3.00;1.60;;;8.20;99.90;;;;;;8233812;28;20307;-80
2024/01/03 18:59:07;;;;;;;3.43;1.80;;;8.20;99.90;;;;;;8241431;28;20211;-81
2024/01/03 19:03:07;;;;;;;2.90;1.77;;;8.20;99.90;;;;;;8247624;28;20611;-80
2024/01/03 19:07:09;;;;;;;5.20;2.00;;;8.20;99.90;;;;;;8256051;28;20196;-80
2024/01/03 19:11:10;;;;;;;2.63;1.50;;;8.30;99.90;;;;;;8249088;28;20199;-81
2024/01/03 19:15:12;;;;;;;3.03;1.70;;;8.30;99.90;;;;;;8236819;28;20223;-80
2024/01/03 19:19:14;;;;;;;4.67;2.10;;;8.30;99.90;;;;;;8237108;28;20185;-80
2024/01/03 19:23:15;;;;;;;3.17;1.80;;;8.40;99.90;;;;;;8248863;28;20235;-80
2024/01/03 19:27:16;;;;;;;3.20;1.70;;;8.40;99.90;;;;;;8239866;28;20230;-81
2024/01/03 19:31:18;;;;;;;3.00;1.67;;;8.40;99.90;;;;;;8235021;28;20259;-80
2024/01/03 19:35:18;;;;;;;2.93;1.53;;;8.40;99.90;;;;;;8235765;28;20242;-81
2024/01/03 19:39:19;;;;;;;3.13;1.73;;;8.40;99.90;;;;;;8236029;28;20405;-81
2024/01/03 19:43:22;;;;;;;2.67;1.23;;;8.40;99.90;;;;;;8236527;28;20195;-81
2024/01/03 19:47:23;;;;;;;3.00;1.70;;;8.50;99.90;;;;;;8233697;28;20594;-79
2024/01/03 19:51:25;;;;;;;2.43;1.47;;;8.40;99.90;;;;;;8230373;28;20203;-78
2024/01/03 19:55:26;;;;;;;4.27;1.80;;;8.50;99.90;;;;;;8228458;28;20212;-80
2024/01/03 19:59:27;;;;;;;7.07;1.73;;;8.50;99.90;;;;;;8250729;28;20282;-80
2024/01/03 20:03:28;;;;;;;3.87;1.50;;;8.40;99.90;;;;;;8231660;28;20686;-80
2024/01/03 20:07:28;;;;;;;5.67;1.70;;;8.40;99.90;;;;;;8233424;28;20196;-80
2024/01/03 20:11:30;;;;;;;2.53;1.40;;;8.50;99.90;;;;;;8249130;28;20184;-79
2024/01/03 20:15:31;;;;;;;5.13;1.80;;;8.50;99.90;;;;;;8242895;28;20378;-79
2024/01/03 20:19:32;;;;;;;2.13;1.30;;;8.60;99.90;;;;;;8236931;28;20274;-80
2024/01/03 20:23:33;;;;;;;4.10;1.53;;;8.60;99.90;;;;;;8256651;28;20188;-79
2024/01/03 20:27:39;;;;;;;4.37;1.60;;;8.50;99.90;;;;;;8238724;28;20204;-79
2024/01/03 20:31:40;;;;;;;2.50;1.30;;;8.50;99.90;;;;;;8238858;28;20199;-79
2024/01/03 20:35:43;;;;;;;3.57;1.90;;;8.50;99.90;;;;;;8237492;28;20212;-79
2024/01/03 20:39:44;;;;;;;3.07;1.50;;;8.50;99.90;;;;;;8241084;28;20526;-79
2024/01/03 20:43:45;;;;;;;1.87;1.20;;;8.40;99.90;;;;;;8239970;28;20201;-79
2024/01/03 20:47:46;;;;;;;2.60;1.47;;;8.20;99.90;;;;;;8254164;28;20267;-79
2024/01/03 20:51:47;;;;;;;4.13;1.30;;;8.10;99.90;;;;;;8234246;28;20191;-79
2024/01/03 20:55:48;;;;;;;3.90;1.80;;;8.10;99.90;;;;;;8255980;28;20304;-79
2024/01/03 20:59:49;;;;;;;2.53;1.10;;;8.00;99.90;;;;;;8255102;28;20240;-80
2024/01/03 21:03:50;;;;;;;3.37;1.57;;;7.90;99.90;;;;;;8301290;28;20191;-80
2024/01/03 21:07:51;;;;;;;1.73;1.07;;;7.90;99.90;;;;;;8298501;28;20184;-81
2024/01/03 21:11:55;;;;;;;1.83;1.20;;;7.80;99.90;;;;;;8274075;28;20187;-80
2024/01/03 21:15:56;;;;;;;3.57;1.37;;;7.80;99.90;;;;;;8241553;28;20258;-79